Terminal Aerodrome Forecast
Issued by NWS Jackson, MS

Home | Current Version | Previous Version | Text Only | Print | Product List | Glossary On
Versions: 1 2 3 4 5 6 7 8 9 10 11 12 13
000
FTUS44 KJAN 211100
TAFGLH
TAF
KGLH 211120Z 2112/2212 04003KT 5SM BR SKC
     FM211400 07006KT P6SM FEW030
     FM220800 16008KT P6SM OVC015=

USA.gov is the U.S. government's official web portal to all federal, state and local government web resources and services.